الصفحة الرئيسية
METAR-TAF:

METAR-TAF

مطار :

Tarawa, كيريباس

دائرة عرض: 01-21N, خط طول: 172-55E, ارتفاع: 2 متر

مراقبة الطقس الحالي

تاريخ ووقت الإصدار 23 دقيقة قبل الساعة 03:00UTC
ريح 5 عقدة من الشمال
درجة الحرارة 31°درجة مئوية
الرطوبة 75%
ضغط 1003 hPa
الرؤية 10 كم أو أكثر
غيوم قليلة على ارتفاع 2000 قدم
غيوم مفككة على ارتفاع 30000 قدم

METAR: NGTA 180300Z 35005KT 9999 FEW020 BKN300 31/26 Q1003

زمن: 17:23 (03:23 UTC)

توقعات

تاريخ ووقت الإصدار 3ساعات و 55 دقيقة قبل الساعة 23:28UTC
التوقعات صالحة من18 الساعة 00 UTC إلى 18 الساعة 24 UTC
ريح 10 عقدة من الشمال
الرؤية 10 كم أو أكثر
غيوم متفرقة على ارتفاع 1800 قدم
نظرية الاحتمالات 30% :
مؤقت
من 18 الساعة 12 UTC إلى 18 الساعة 18 UTC
الرؤية: 5000 متر
غيوم مفككة على ارتفاع 1500 قدم
زخات من المطر

TAF: NGTA 172328Z 1800/1824 01010KT 9999 SCT018 PROB30 TEMPO 1812/1818 5000 SHRA BKN015

أرصاد الطقس والتوقعات من أكثر من 4000 مطار (تقارير الطقس للمطار METAR والتنبؤ بالطقس بالمطارTAF).

المحطات المتاحة هي النقط الصفراء والحمراء على الخريطة.

حرك المؤشر فوق النقطة لمعرفة اسم المحطة.

ثم انقر لمعرفة أرصاد وتوقعات الطقس.

لتغيير الخارطة: اضغط على الأزرار الخضراء مع رمز الصليب الأسود للتكبير. على الزر الأخضر مع شرطة للتصغير، أو على الأسهم الخضراء للخرائط المجاورة.


METAR-TAF: